Time;durP1;ratioP1;P1;durP2;ratioP2;P2;SDS_P1;SDS_P2;PMS_P1;PMS_P2;Temp;Humidity;BMP_temperature;BMP_pressure;BME280_temperature;BME280_humidity;BME280_pressure;Samples;Min_cycle;Max_cycle;Signal;HPM_P1;HPM_P2
2021/04/12 00:14:47;;;;;;;0.30;0.30;;;;;;;;;;5127475;27;20350;-58
2021/04/12 00:17:26;;;;;;;0.20;0.20;;;;;;;;;;5119180;28;20026;-59
2021/04/12 00:19:55;;;;;;;0.30;0.30;;;;;;;;;;5111089;28;20027;-59
2021/04/12 00:22:25;;;;;;;0.22;0.22;;;;;;;;;;5107799;28;20103;-58
2021/04/12 00:24:56;;;;;;;0.40;0.40;;;;;;;;;;5110667;28;20055;-59
2021/04/12 00:27:25;;;;;;;0.40;0.40;;;;;;;;;;5112055;28;20024;-58
2021/04/12 00:29:51;;;;;;;0.30;0.30;;;;;;;;;;5111075;28;20028;-59
2021/04/12 00:32:22;;;;;;;0.20;0.20;;;;;;;;;;5110634;28;20085;-59
2021/04/12 00:35:07;;;;;;;0.28;0.28;;;;;;;;;;5110720;28;20031;-58
2021/04/12 00:37:36;;;;;;;0.28;0.28;;;;;;;;;;5109084;28;20066;-59
2021/04/12 00:40:11;;;;;;;0.47;0.47;;;;;;;;;;5107698;28;20103;-58
2021/04/12 00:42:45;;;;;;;0.37;0.37;;;;;;;;;;5113229;28;20062;-58
2021/04/12 00:45:30;;;;;;;0.40;0.40;;;;;;;;;;5110083;28;20400;-59
2021/04/12 00:48:15;;;;;;;0.40;0.40;;;;;;;;;;5110441;28;20439;-59
2021/04/12 00:50:44;;;;;;;0.40;0.40;;;;;;;;;;5110812;28;20099;-56
2021/04/12 00:53:10;;;;;;;0.40;0.40;;;;;;;;;;5110721;28;20081;-57
2021/04/12 00:55:40;;;;;;;0.40;0.40;;;;;;;;;;5109257;28;20027;-57
2021/04/12 00:58:15;;;;;;;0.30;0.30;;;;;;;;;;5105129;28;20590;-59
2021/04/12 01:00:46;;;;;;;0.35;0.35;;;;;;;;;;5136556;27;20028;-58
2021/04/12 01:03:16;;;;;;;0.30;0.30;;;;;;;;;;5105488;28;20574;-58
2021/04/12 01:06:02;;;;;;;0.30;0.30;;;;;;;;;;5109729;28;20122;-57
2021/04/12 01:08:45;;;;;;;0.35;0.35;;;;;;;;;;5109763;28;20032;-57
2021/04/12 01:11:11;;;;;;;0.30;0.30;;;;;;;;;;5109043;28;20059;-58
2021/04/12 01:13:45;;;;;;;0.40;0.40;;;;;;;;;;5103552;28;20051;-57
2021/04/12 01:16:21;;;;;;;0.30;0.30;;;;;;;;;;5077253;28;20112;-57
2021/04/12 01:18:47;;;;;;;0.40;0.40;;;;;;;;;;5090004;28;20554;-58
2021/04/12 01:21:16;;;;;;;0.38;0.38;;;;;;;;;;5092351;28;20043;-58
2021/04/12 01:23:48;;;;;;;0.32;0.32;;;;;;;;;;5092817;28;20127;-55
2021/04/12 01:26:33;;;;;;;0.30;0.30;;;;;;;;;;5093107;28;20093;-58
2021/04/12 01:29:02;;;;;;;0.32;0.32;;;;;;;;;;5093026;28;20022;-58
2021/04/12 01:31:47;;;;;;;0.40;0.40;;;;;;;;;;5092705;28;20375;-58
2021/04/12 01:34:19;;;;;;;0.40;0.40;;;;;;;;;;5076570;28;20489;-58
2021/04/12 01:36:48;;;;;;;0.40;0.40;;;;;;;;;;5089886;28;20185;-57
2021/04/12 01:39:23;;;;;;;0.25;0.25;;;;;;;;;;5093694;28;20028;-59
2021/04/12 01:42:03;;;;;;;0.40;0.40;;;;;;;;;;5093406;28;20024;-58
2021/04/12 01:44:35;;;;;;;0.40;0.40;;;;;;;;;;5093279;28;20043;-58
2021/04/12 01:47:04;;;;;;;0.30;0.30;;;;;;;;;;5092869;28;20016;-57
2021/04/12 01:49:47;;;;;;;0.40;0.40;;;;;;;;;;5093353;28;20485;-57
2021/04/12 01:52:32;;;;;;;0.40;0.40;;;;;;;;;;5077203;28;20107;-58
2021/04/12 01:55:30;;;;;;;0.40;0.40;;;;;;;;;;5091301;28;20370;-57
2021/04/12 01:57:56;;;;;;;0.40;0.40;;;;;;;;;;5008138;28;20038;-58
2021/04/12 02:00:41;;;;;;;0.40;0.40;;;;;;;;;;5010834;28;20046;-58
2021/04/12 02:03:16;;;;;;;0.35;0.35;;;;;;;;;;5008077;28;20073;-57
2021/04/12 02:05:42;;;;;;;;;;;;;;;;;;5010092;28;20030;-58
2021/04/12 02:08:23;;;;;;;0.40;0.40;;;;;;;;;;5009445;28;19909;-58
2021/04/12 02:11:07;;;;;;;0.40;0.40;;;;;;;;;;5007876;28;20072;-57
2021/04/12 02:13:39;;;;;;;0.30;0.30;;;;;;;;;;5009327;28;20060;-60
2021/04/12 02:16:08;;;;;;;0.40;0.40;;;;;;;;;;5009221;28;20026;-58
2021/04/12 02:18:36;;;;;;;0.30;0.30;;;;;;;;;;5011149;28;20080;-58
2021/04/12 02:21:05;;;;;;;0.35;0.35;;;;;;;;;;5009330;28;20108;-58
2021/04/12 02:23:37;;;;;;;0.43;0.43;;;;;;;;;;5009135;28;20533;-58
2021/04/12 02:26:06;;;;;;;0.40;0.40;;;;;;;;;;5008302;28;20026;-57
2021/04/12 02:28:51;;;;;;;0.40;0.40;;;;;;;;;;5009321;28;20492;-58
2021/04/12 02:31:35;;;;;;;0.30;0.30;;;;;;;;;;4993547;28;20141;-57
2021/04/12 02:34:11;;;;;;;0.40;0.40;;;;;;;;;;5056167;28;20045;-58
2021/04/12 02:36:41;;;;;;;0.20;0.20;;;;;;;;;;5092702;28;20024;-57
2021/04/12 02:39:26;;;;;;;0.30;0.30;;;;;;;;;;5092194;28;20027;-57
2021/04/12 02:42:10;;;;;;;0.83;0.83;;;;;;;;;;5092262;28;20081;-58
2021/04/12 02:44:54;;;;;;;0.40;0.40;;;;;;;;;;5091795;28;20036;-57
2021/04/12 02:47:29;;;;;;;0.40;0.40;;;;;;;;;;5092086;28;20058;-57
2021/04/12 02:50:02;;;;;;;0.40;0.40;;;;;;;;;;5092058;28;20042;-58
2021/04/12 02:52:37;;;;;;;0.40;0.40;;;;;;;;;;5092013;28;20020;-57
2021/04/12 02:55:25;;;;;;;0.30;0.30;;;;;;;;;;5092163;28;20036;-59
2021/04/12 02:57:54;;;;;;;0.40;0.40;;;;;;;;;;5089130;28;20085;-58
2021/04/12 03:00:25;;;;;;;0.38;0.38;;;;;;;;;;5092009;28;20067;-57
2021/04/12 03:02:51;;;;;;;0.40;0.40;;;;;;;;;;5091645;28;20032;-57
2021/04/12 03:05:35;;;;;;;0.40;0.40;;;;;;;;;;5091907;28;20031;-57
2021/04/12 03:08:19;;;;;;;0.35;0.35;;;;;;;;;;5091925;28;20032;-57
2021/04/12 03:10:45;;;;;;;0.40;0.40;;;;;;;;;;5091729;28;20048;-58
2021/04/12 03:13:11;;;;;;;0.30;0.30;;;;;;;;;;5090179;28;20055;-58
2021/04/12 03:15:47;;;;;;;0.30;0.30;;;;;;;;;;5092008;28;20123;-58
2021/04/12 03:18:13;;;;;;;;;;;;;;;;;;5091824;28;20417;-57
2021/04/12 03:20:48;;;;;;;0.30;0.30;;;;;;;;;;5091495;28;19904;-57
2021/04/12 03:23:32;;;;;;;0.43;0.43;;;;;;;;;;5091411;28;20067;-57
2021/04/12 03:26:04;;;;;;;0.40;0.40;;;;;;;;;;5091499;28;20048;-58
2021/04/12 03:28:33;;;;;;;0.40;0.40;;;;;;;;;;5091157;28;20082;-59
2021/04/12 03:31:02;;;;;;;0.30;0.30;;;;;;;;;;5090522;28;20038;-56
2021/04/12 03:33:47;;;;;;;0.40;0.40;;;;;;;;;;5091539;28;20028;-58
2021/04/12 03:36:20;;;;;;;0.40;0.40;;;;;;;;;;5091103;28;20035;-58
2021/04/12 03:38:57;;;;;;;0.30;0.30;;;;;;;;;;5091172;28;20028;-58
2021/04/12 03:41:35;;;;;;;0.30;0.30;;;;;;;;;;5091249;28;20036;-58
2021/04/12 03:44:11;;;;;;;0.30;0.30;;;;;;;;;;5090947;28;20031;-57
2021/04/12 03:46:37;;;;;;;0.40;0.40;;;;;;;;;;5089940;28;20506;-57
2021/04/12 03:49:21;;;;;;;0.40;0.40;;;;;;;;;;5090770;28;20024;-56
2021/04/12 03:52:07;;;;;;;0.30;0.30;;;;;;;;;;5087285;28;20032;-58
2021/04/12 03:54:43;;;;;;;0.30;0.30;;;;;;;;;;5090280;28;20077;-56
2021/04/12 03:57:09;;;;;;;;;;;;;;;;;;5090439;28;20200;-57
2021/04/12 03:59:47;;;;;;;0.30;0.30;;;;;;;;;;5089813;28;19995;-57
2021/04/12 04:02:33;;;;;;;0.30;0.30;;;;;;;;;;5090810;28;20043;-57
2021/04/12 04:04:59;;;;;;;0.40;0.40;;;;;;;;;;5091157;28;20114;-58
2021/04/12 04:07:48;;;;;;;0.40;0.40;;;;;;;;;;5091051;28;20421;-59
2021/04/12 04:10:22;;;;;;;0.30;0.30;;;;;;;;;;5073599;28;20028;-57
2021/04/12 04:13:04;;;;;;;0.40;0.40;;;;;;;;;;5087415;28;20044;-58
2021/04/12 04:15:30;;;;;;;0.40;0.40;;;;;;;;;;5089864;28;20089;-57
2021/04/12 04:18:02;;;;;;;0.35;0.35;;;;;;;;;;5090864;28;20058;-58
2021/04/12 04:20:36;;;;;;;0.40;0.40;;;;;;;;;;5090947;28;20081;-58
2021/04/12 04:23:05;;;;;;;0.40;0.40;;;;;;;;;;5090684;28;20055;-58
2021/04/12 04:25:43;;;;;;;0.45;0.45;;;;;;;;;;5090477;28;20474;-59
2021/04/12 04:28:09;;;;;;;1.17;1.17;;;;;;;;;;5090788;28;20386;-56
2021/04/12 04:30:46;;;;;;;0.40;0.40;;;;;;;;;;5091211;28;20031;-58
2021/04/12 04:33:26;;;;;;;0.40;0.40;;;;;;;;;;5090170;28;20046;-57
2021/04/12 04:36:02;;;;;;;0.30;0.30;;;;;;;;;;5089480;28;20024;-56
2021/04/12 04:38:40;;;;;;;0.30;0.30;;;;;;;;;;5089843;28;20028;-58
2021/04/12 04:41:17;;;;;;;0.40;0.40;;;;;;;;;;5089778;28;20025;-55
2021/04/12 04:43:55;;;;;;;0.40;0.40;;;;;;;;;;5089835;28;20039;-57
2021/04/12 04:46:34;;;;;;;0.38;0.38;;;;;;;;;;5075177;28;20063;-58
2021/04/12 04:49:06;;;;;;;0.40;0.40;;;;;;;;;;5090364;28;20040;-55
2021/04/12 04:51:37;;;;;;;0.40;0.40;;;;;;;;;;5094572;28;20111;-58
2021/04/12 04:54:15;;;;;;;0.40;0.40;;;;;;;;;;5093792;28;20416;-56
2021/04/12 04:57:10;;;;;;;0.40;0.40;;;;;;;;;;5094506;28;20039;-56
2021/04/12 04:59:54;;;;;;;0.40;0.40;;;;;;;;;;5094369;28;20089;-57
2021/04/12 05:02:56;;;;;;;0.30;0.30;;;;;;;;;;5088699;28;20032;-57
2021/04/12 05:05:38;;;;;;;0.32;0.32;;;;;;;;;;5005252;28;20508;-58
2021/04/12 05:08:04;;;;;;;0.30;0.30;;;;;;;;;;5011665;28;20046;-56
2021/04/12 05:10:40;;;;;;;0.40;0.40;;;;;;;;;;5011246;28;20022;-57
2021/04/12 05:13:16;;;;;;;0.30;0.30;;;;;;;;;;4994494;28;20065;-58
2021/04/12 05:16:00;;;;;;;0.43;0.43;;;;;;;;;;5008127;28;20039;-56
2021/04/12 05:18:29;;;;;;;0.30;0.30;;;;;;;;;;5010211;28;20091;-58
2021/04/12 05:21:06;;;;;;;0.70;0.70;;;;;;;;;;5011490;28;20041;-57
2021/04/12 05:23:35;;;;;;;0.30;0.30;;;;;;;;;;4992030;28;20056;-57
2021/04/12 05:26:04;;;;;;;0.40;0.40;;;;;;;;;;5011305;28;20030;-58
2021/04/12 05:28:33;;;;;;;0.20;0.20;;;;;;;;;;5011376;28;20030;-56
2021/04/12 05:31:08;;;;;;;0.30;0.30;;;;;;;;;;5004166;28;20026;-58
2021/04/12 05:33:34;;;;;;;;;;;;;;;;;;5002878;28;20312;-58
2021/04/12 05:36:19;;;;;;;0.40;0.40;;;;;;;;;;5009655;28;19992;-57
2021/04/12 05:38:51;;;;;;;0.30;0.30;;;;;;;;;;5031797;28;20065;-55
2021/04/12 05:41:40;;;;;;;1.00;1.00;;;;;;;;;;5090388;28;20488;-57
2021/04/12 05:44:06;;;;;;;0.30;0.30;;;;;;;;;;5089816;28;20089;-56
2021/04/12 05:46:50;;;;;;;0.40;0.40;;;;;;;;;;5090356;28;20030;-56
2021/04/12 05:49:36;;;;;;;0.43;0.43;;;;;;;;;;5075006;28;20020;-57
2021/04/12 05:52:21;;;;;;;0.30;0.30;;;;;;;;;;5084796;28;20086;-58
2021/04/12 05:54:55;;;;;;;0.30;0.30;;;;;;;;;;5089101;28;20028;-52
2021/04/12 05:57:40;;;;;;;0.40;0.40;;;;;;;;;;5090540;28;20036;-56
2021/04/12 06:00:16;;;;;;;0.32;0.32;;;;;;;;;;5089105;28;20028;-59
2021/04/12 06:02:51;;;;;;;0.40;0.40;;;;;;;;;;5089297;28;20058;-55
2021/04/12 06:05:33;;;;;;;0.30;0.30;;;;;;;;;;5089442;28;20020;-57
2021/04/12 06:08:05;;;;;;;0.30;0.30;;;;;;;;;;5089463;28;20111;-56
2021/04/12 06:10:46;;;;;;;0.30;0.30;;;;;;;;;;5078152;28;20028;-57
2021/04/12 06:13:33;;;;;;;0.40;0.40;;;;;;;;;;5073881;28;20067;-56
2021/04/12 06:16:24;;;;;;;0.30;0.30;;;;;;;;;;5090395;28;20074;-56
2021/04/12 06:19:09;;;;;;;0.30;0.30;;;;;;;;;;5089958;28;20382;-57
2021/04/12 06:21:41;;;;;;;0.30;0.30;;;;;;;;;;5089075;28;20023;-58
2021/04/12 06:24:11;;;;;;;0.47;0.47;;;;;;;;;;5086362;28;20040;-58
2021/04/12 06:26:37;;;;;;;0.35;0.35;;;;;;;;;;5086048;28;20551;-56
2021/04/12 06:29:09;;;;;;;0.40;0.40;;;;;;;;;;5085753;28;20469;-59
2021/04/12 06:31:54;;;;;;;0.40;0.40;;;;;;;;;;5086204;28;20029;-57
2021/04/12 06:34:35;;;;;;;0.30;0.30;;;;;;;;;;5073625;28;20037;-57
2021/04/12 06:37:19;;;;;;;0.40;0.40;;;;;;;;;;5091029;28;20039;-56
2021/04/12 06:39:57;;;;;;;0.40;0.40;;;;;;;;;;5088807;28;20067;-56
2021/04/12 06:42:30;;;;;;;0.40;0.40;;;;;;;;;;5090328;28;20035;-56
2021/04/12 06:44:59;;;;;;;0.40;0.40;;;;;;;;;;5088870;28;20062;-57
2021/04/12 06:47:25;;;;;;;0.40;0.40;;;;;;;;;;5088794;28;20052;-58
2021/04/12 06:49:57;;;;;;;0.30;0.30;;;;;;;;;;5087226;28;20050;-57
2021/04/12 06:52:35;;;;;;;0.30;0.30;;;;;;;;;;5088034;28;20493;-57
2021/04/12 06:55:20;;;;;;;0.32;0.32;;;;;;;;;;5090385;28;20035;-54
2021/04/12 06:57:49;;;;;;;0.30;0.30;;;;;;;;;;5080356;28;20033;-55
2021/04/12 07:00:22;;;;;;;0.38;0.38;;;;;;;;;;5088549;28;20045;-55
2021/04/12 07:03:02;;;;;;;0.30;0.30;;;;;;;;;;5087859;28;20040;-57
2021/04/12 07:05:31;;;;;;;0.30;0.30;;;;;;;;;;5080994;28;20040;-57
2021/04/12 07:08:00;;;;;;;0.40;0.40;;;;;;;;;;5082948;28;20475;-59
2021/04/12 07:10:45;;;;;;;0.30;0.30;;;;;;;;;;5087533;28;20024;-58
2021/04/12 07:13:11;;;;;;;0.30;0.30;;;;;;;;;;5086902;28;20050;-54
2021/04/12 07:16:06;;;;;;;0.30;0.30;;;;;;;;;;5105858;28;20031;-57
2021/04/12 07:18:35;;;;;;;0.30;0.30;;;;;;;;;;5028136;28;20065;-57
2021/04/12 07:21:20;;;;;;;0.30;0.30;;;;;;;;;;5026319;28;20029;-56
2021/04/12 07:23:46;;;;;;;0.37;0.37;;;;;;;;;;5023402;28;20049;-54
2021/04/12 07:26:12;;;;;;;0.30;0.30;;;;;;;;;;5019707;28;20420;-57
2021/04/12 07:28:59;;;;;;;0.30;0.30;;;;;;;;;;5027110;28;20207;-57
2021/04/12 07:31:52;;;;;;;0.28;0.28;;;;;;;;;;5013300;28;20095;-56
2021/04/12 07:34:21;;;;;;;0.30;0.30;;;;;;;;;;5011175;28;20080;-58
2021/04/12 07:37:06;;;;;;;0.30;0.30;;;;;;;;;;5028730;28;20053;-57
2021/04/12 07:39:44;;;;;;;4.80;4.57;;;;;;;;;;5029470;28;20033;-56
2021/04/12 07:42:29;;;;;;;0.30;0.30;;;;;;;;;;5022778;28;20124;-56
2021/04/12 07:44:55;;;;;;;0.30;0.30;;;;;;;;;;5020033;28;20124;-57
2021/04/12 07:47:21;;;;;;;0.30;0.30;;;;;;;;;;5018836;28;20053;-56
2021/04/12 07:50:17;;;;;;;0.28;0.28;;;;;;;;;;5018634;28;20033;-56
2021/04/12 07:53:01;;;;;;;0.30;0.30;;;;;;;;;;5023609;28;20040;-57
2021/04/12 07:55:46;;;;;;;0.20;0.20;;;;;;;;;;5058411;28;20081;-56
2021/04/12 07:58:12;;;;;;;0.30;0.30;;;;;;;;;;5081007;28;20808;-58
2021/04/12 08:00:48;;;;;;;0.20;0.20;;;;;;;;;;5072520;28;20125;-58
2021/04/12 08:03:14;;;;;;;;;;;;;;;;;;5074940;28;20040;-57
2021/04/12 08:05:59;;;;;;;1.65;0.63;;;;;;;;;;5080629;28;19947;-59
2021/04/12 08:08:43;;;;;;;0.20;0.20;;;;;;;;;;5077929;28;20032;-57
2021/04/12 08:11:09;;;;;;;0.20;0.20;;;;;;;;;;5081507;28;20028;-59
2021/04/12 08:13:47;;;;;;;0.28;0.28;;;;;;;;;;5078851;28;20067;-59
2021/04/12 08:16:39;;;;;;;0.20;0.20;;;;;;;;;;5069859;28;20024;-57
2021/04/12 08:19:23;;;;;;;0.75;0.75;;;;;;;;;;5090988;28;20040;-56
2021/04/12 08:21:52;;;;;;;0.30;0.30;;;;;;;;;;5090372;28;20135;-59
2021/04/12 08:24:24;;;;;;;0.20;0.20;;;;;;;;;;5092471;28;20066;-54
2021/04/12 08:27:03;;;;;;;0.20;0.20;;;;;;;;;;5091415;28;20055;-57
2021/04/12 08:29:52;;;;;;;0.55;0.55;;;;;;;;;;5093000;28;20036;-57
2021/04/12 08:32:48;;;;;;;0.20;0.20;;;;;;;;;;5087997;28;20421;-59
2021/04/12 08:35:14;;;;;;;;;;;;;;;;;;5096011;28;20028;-57
2021/04/12 08:37:43;;;;;;;0.20;0.20;;;;;;;;;;5093176;28;19907;-58
2021/04/12 08:40:28;;;;;;;0.20;0.20;;;;;;;;;;5091381;28;20032;-58
2021/04/12 08:42:58;;;;;;;0.10;0.10;;;;;;;;;;5082148;28;20378;-60
2021/04/12 08:45:24;;;;;;;0.20;0.20;;;;;;;;;;5081053;28;20046;-58
2021/04/12 08:48:08;;;;;;;0.20;0.20;;;;;;;;;;5080638;28;20086;-59
2021/04/12 08:50:44;;;;;;;0.30;0.30;;;;;;;;;;5091942;28;20472;-58
2021/04/12 08:53:38;;;;;;;0.10;0.10;;;;;;;;;;5091961;28;20027;-57
2021/04/12 08:56:07;;;;;;;0.65;0.25;;;;;;;;;;5103214;28;20404;-57
2021/04/12 08:58:52;;;;;;;0.20;0.20;;;;;;;;;;5089425;28;20013;-59
2021/04/12 09:01:20;;;;;;;0.10;0.10;;;;;;;;;;5079097;28;22311;-57
2021/04/12 09:03:50;;;;;;;0.10;0.10;;;;;;;;;;5072730;28;20075;-58
2021/04/12 09:06:31;;;;;;;0.20;0.20;;;;;;;;;;5077549;28;20032;-58
2021/04/12 09:09:16;;;;;;;0.28;0.28;;;;;;;;;;5080905;28;20580;-57
2021/04/12 09:12:05;;;;;;;0.10;0.10;;;;;;;;;;5085987;28;20520;-56
2021/04/12 09:14:56;;;;;;;0.10;0.10;;;;;;;;;;5026334;28;20073;-58
2021/04/12 09:17:22;;;;;;;0.20;0.20;;;;;;;;;;5026332;28;20124;-57
2021/04/12 09:19:54;;;;;;;0.20;0.20;;;;;;;;;;5009377;28;20033;-58
2021/04/12 09:22:26;;;;;;;0.10;0.10;;;;;;;;;;5025798;28;20103;-59
2021/04/12 09:25:10;;;;;;;0.10;0.10;;;;;;;;;;5026649;28;20506;-58
2021/04/12 09:27:51;;;;;;;0.20;0.20;;;;;;;;;;5026539;28;20025;-57
2021/04/12 09:30:46;;;;;;;0.20;0.20;;;;;;;;;;5024601;28;20029;-55
2021/04/12 09:33:31;;;;;;;0.10;0.10;;;;;;;;;;5026808;28;20139;-58
2021/04/12 09:35:59;;;;;;;0.10;0.10;;;;;;;;;;5025957;28;20034;-58
2021/04/12 09:38:26;;;;;;;0.15;0.15;;;;;;;;;;5025588;28;20033;-59
2021/04/12 09:41:10;;;;;;;0.10;0.10;;;;;;;;;;5025043;28;20025;-58
2021/04/12 09:43:42;;;;;;;0.10;0.10;;;;;;;;;;5026167;28;20141;-57
2021/04/12 09:46:27;;;;;;;0.30;0.30;;;;;;;;;;5025285;28;20045;-58
2021/04/12 09:48:53;;;;;;;0.10;0.10;;;;;;;;;;5026219;28;20044;-56
2021/04/12 09:51:25;;;;;;;0.17;0.17;;;;;;;;;;5043740;28;20047;-58
2021/04/12 09:54:10;;;;;;;0.10;0.10;;;;;;;;;;5088063;28;20035;-57
2021/04/12 09:56:58;;;;;;;0.10;0.10;;;;;;;;;;5073222;28;20029;-58
2021/04/12 09:59:37;;;;;;;0.10;0.10;;;;;;;;;;5071893;28;20030;-56
2021/04/12 10:02:21;;;;;;;0.10;0.10;;;;;;;;;;5082731;28;20035;-57
2021/04/12 10:04:54;;;;;;;0.10;0.10;;;;;;;;;;5084010;28;20051;-56
2021/04/12 10:07:38;;;;;;;0.10;0.10;;;;;;;;;;5085084;28;20039;-58
2021/04/12 10:10:07;;;;;;;0.10;0.10;;;;;;;;;;5088540;28;20028;-58
2021/04/12 10:12:39;;;;;;;0.40;0.40;;;;;;;;;;5094220;28;20021;-58
2021/04/12 10:15:09;;;;;;;0.20;0.20;;;;;;;;;;5090916;28;20513;-58
2021/04/12 10:17:40;;;;;;;0.10;0.10;;;;;;;;;;5092439;28;20093;-59
2021/04/12 10:20:10;;;;;;;0.98;0.73;;;;;;;;;;5088564;28;20024;-57
2021/04/12 10:22:48;;;;;;;0.50;0.50;;;;;;;;;;5088687;28;22063;-58
2021/04/12 10:25:22;;;;;;;0.13;0.13;;;;;;;;;;5073102;28;20520;-59
2021/04/12 10:27:51;;;;;;;0.20;0.20;;;;;;;;;;5088666;28;20039;-58
2021/04/12 10:30:30;;;;;;;0.10;0.10;;;;;;;;;;5090240;28;20494;-59
2021/04/12 10:33:00;;;;;;;0.10;0.10;;;;;;;;;;5088999;28;20437;-59
2021/04/12 10:35:30;;;;;;;0.17;0.17;;;;;;;;;;5089048;28;20020;-58
2021/04/12 10:38:05;;;;;;;0.20;0.20;;;;;;;;;;5078901;28;20544;-57
2021/04/12 10:40:40;;;;;;;0.10;0.10;;;;;;;;;;5082093;28;20039;-57
2021/04/12 10:43:13;;;;;;;0.20;0.20;;;;;;;;;;5089576;28;20048;-59
2021/04/12 10:45:42;;;;;;;0.13;0.13;;;;;;;;;;5092410;28;20486;-56
2021/04/12 10:48:17;;;;;;;0.10;0.10;;;;;;;;;;5087967;28;20028;-58
2021/04/12 10:50:50;;;;;;;0.35;0.35;;;;;;;;;;5088745;28;20034;-58
2021/04/12 10:53:22;;;;;;;0.10;0.10;;;;;;;;;;5088526;28;20028;-58
2021/04/12 10:56:20;;;;;;;0.55;0.55;;;;;;;;;;5084639;28;20024;-58
2021/04/12 10:59:05;;;;;;;0.20;0.20;;;;;;;;;;5044097;28;20426;-58
2021/04/12 11:01:53;;;;;;;0.20;0.20;;;;;;;;;;5039100;28;20048;-59
2021/04/12 11:04:38;;;;;;;0.10;0.10;;;;;;;;;;5028532;28;20040;-58
2021/04/12 11:07:06;;;;;;;1.30;1.03;;;;;;;;;;5038295;28;20029;-58
2021/04/12 11:09:38;;;;;;;0.10;0.10;;;;;;;;;;5041762;28;20060;-59
2021/04/12 11:12:22;;;;;;;0.20;0.20;;;;;;;;;;5039035;28;20034;-58
2021/04/12 11:14:53;;;;;;;0.20;0.20;;;;;;;;;;5022070;28;20192;-58
2021/04/12 11:17:28;;;;;;;0.10;0.10;;;;;;;;;;5022779;28;20175;-59
2021/04/12 11:20:04;;;;;;;0.10;0.10;;;;;;;;;;5024346;28;20049;-58
2021/04/12 11:22:48;;;;;;;0.10;0.10;;;;;;;;;;5007382;28;20044;-58
2021/04/12 11:25:23;;;;;;;0.10;0.10;;;;;;;;;;5022987;28;20092;-59
2021/04/12 11:28:01;;;;;;;0.10;0.10;;;;;;;;;;5005235;28;20042;-59
2021/04/12 11:30:47;;;;;;;0.10;0.10;;;;;;;;;;5023297;28;20038;-58
2021/04/12 11:33:20;;;;;;;0.10;0.10;;;;;;;;;;5011462;28;20052;-57
2021/04/12 11:35:49;;;;;;;0.10;0.10;;;;;;;;;;5043827;28;20040;-59
2021/04/12 11:38:17;;;;;;;0.10;0.10;;;;;;;;;;5043952;28;20036;-59
2021/04/12 11:40:57;;;;;;;0.10;0.10;;;;;;;;;;5044339;28;20108;-57
2021/04/12 11:43:26;;;;;;;0.22;0.22;;;;;;;;;;5029892;28;20087;-59
2021/04/12 11:45:55;;;;;;;0.30;0.30;;;;;;;;;;5047054;28;20104;-59
2021/04/12 11:48:26;;;;;;;0.10;0.10;;;;;;;;;;5046694;28;20028;-60
2021/04/12 11:51:00;;;;;;;0.10;0.10;;;;;;;;;;5042204;28;20052;-59
2021/04/12 11:53:45;;;;;;;0.10;0.10;;;;;;;;;;5045390;28;20059;-59
2021/04/12 11:56:17;;;;;;;0.10;0.10;;;;;;;;;;5049789;28;20696;-59
2021/04/12 11:58:43;;;;;;;0.20;0.20;;;;;;;;;;5048909;28;20082;-59
2021/04/12 12:01:18;;;;;;;0.10;0.10;;;;;;;;;;5047386;28;20071;-59
2021/04/12 12:03:47;;;;;;;0.30;0.30;;;;;;;;;;5050616;28;20056;-58
2021/04/12 12:06:32;;;;;;;0.10;0.10;;;;;;;;;;5051993;28;20491;-58
2021/04/12 12:09:05;;;;;;;0.20;0.20;;;;;;;;;;5047849;28;20618;-59
2021/04/12 12:11:44;;;;;;;0.10;0.10;;;;;;;;;;5043314;28;20029;-59
2021/04/12 12:14:19;;;;;;;0.10;0.10;;;;;;;;;;5076001;28;20131;-59
2021/04/12 12:16:46;;;;;;;0.10;0.10;;;;;;;;;;5089746;28;20115;-58
2021/04/12 12:19:21;;;;;;;0.10;0.10;;;;;;;;;;5086542;28;20097;-59
2021/04/12 12:21:47;;;;;;;0.10;0.10;;;;;;;;;;5089442;28;20040;-59
2021/04/12 12:24:19;;;;;;;0.10;0.10;;;;;;;;;;5089758;28;20093;-59
2021/04/12 12:26:51;;;;;;;0.10;0.10;;;;;;;;;;5089287;28;20024;-59
2021/04/12 12:29:20;;;;;;;0.32;0.13;;;;;;;;;;5090127;28;20028;-58
2021/04/12 12:31:53;;;;;;;0.10;0.10;;;;;;;;;;5081002;28;20347;-59
2021/04/12 12:34:24;;;;;;;0.20;0.20;;;;;;;;;;5075241;28;20089;-59
2021/04/12 12:37:02;;;;;;;0.10;0.10;;;;;;;;;;5087883;28;20031;-58
2021/04/12 12:39:49;;;;;;;0.10;0.10;;;;;;;;;;5092872;28;20460;-59
2021/04/12 12:42:21;;;;;;;0.10;0.10;;;;;;;;;;5083763;28;20028;-59
2021/04/12 12:44:47;;;;;;;0.20;0.20;;;;;;;;;;5077757;28;20039;-59
2021/04/12 12:47:16;;;;;;;0.10;0.10;;;;;;;;;;5081467;28;20627;-58
2021/04/12 12:49:51;;;;;;;0.15;0.15;;;;;;;;;;5074657;28;20023;-59
2021/04/12 12:52:26;;;;;;;0.10;0.10;;;;;;;;;;5070359;28;20169;-59
2021/04/12 12:54:54;;;;;;;0.10;0.10;;;;;;;;;;5091501;28;20036;-58
2021/04/12 12:57:38;;;;;;;0.10;0.10;;;;;;;;;;5092933;28;20031;-58
2021/04/12 13:00:22;;;;;;;0.00;0.00;;;;;;;;;;5084187;28;20032;-59
2021/04/12 13:02:49;;;;;;;2.60;0.20;;;;;;;;;;5082449;28;20041;-59
2021/04/12 13:05:22;;;;;;;0.10;0.10;;;;;;;;;;5081847;28;20024;-59
2021/04/12 13:07:49;;;;;;;0.10;0.10;;;;;;;;;;5076303;28;20070;-60
2021/04/12 13:10:34;;;;;;;0.10;0.10;;;;;;;;;;5078710;28;20056;-59
2021/04/12 13:13:00;;;;;;;0.15;0.15;;;;;;;;;;5084100;28;20040;-59
2021/04/12 13:15:30;;;;;;;0.10;0.10;;;;;;;;;;5089861;28;20021;-60
2021/04/12 13:18:10;;;;;;;1.17;0.47;;;;;;;;;;5090352;28;20027;-59
2021/04/12 13:20:47;;;;;;;0.10;0.10;;;;;;;;;;5090328;28;20020;-60
2021/04/12 13:23:19;;;;;;;0.10;0.10;;;;;;;;;;5083623;28;20043;-60
2021/04/12 13:25:46;;;;;;;1.30;0.43;;;;;;;;;;5089140;28;20036;-58
2021/04/12 13:28:16;;;;;;;0.10;0.10;;;;;;;;;;5076526;28;20095;-59
2021/04/12 13:30:46;;;;;;;13.90;1.55;;;;;;;;;;5089109;28;20028;-60
2021/04/12 13:33:15;;;;;;;0.10;0.10;;;;;;;;;;5080993;28;20056;-59
2021/04/12 13:35:42;;;;;;;0.10;0.10;;;;;;;;;;5082064;28;20077;-58
2021/04/12 13:38:12;;;;;;;0.40;0.20;;;;;;;;;;5083448;28;20036;-59
2021/04/12 13:40:49;;;;;;;0.15;0.15;;;;;;;;;;5079868;28;20024;-59
2021/04/12 13:43:17;;;;;;;0.10;0.10;;;;;;;;;;5074236;28;20464;-60
2021/04/12 13:45:44;;;;;;;0.10;0.10;;;;;;;;;;5078674;28;20078;-59
2021/04/12 13:48:20;;;;;;;0.10;0.10;;;;;;;;;;5076729;28;20020;-60
2021/04/12 13:50:48;;;;;;;0.20;0.20;;;;;;;;;;5078565;28;20028;-58
2021/04/12 13:53:17;;;;;;;0.10;0.10;;;;;;;;;;5078889;28;20486;-59
2021/04/12 13:56:02;;;;;;;0.20;0.20;;;;;;;;;;5080809;28;20041;-59
2021/04/12 13:58:33;;;;;;;0.57;0.32;;;;;;;;;;5076025;28;20048;-60
2021/04/12 14:01:04;;;;;;;0.10;0.10;;;;;;;;;;5073413;28;20021;-59
2021/04/12 14:03:34;;;;;;;0.10;0.10;;;;;;;;;;5072841;28;20044;-59
2021/04/12 14:06:20;;;;;;;0.28;0.28;;;;;;;;;;5076229;28;20088;-59
2021/04/12 14:08:53;;;;;;;0.10;0.10;;;;;;;;;;5085566;28;20027;-60
2021/04/12 14:11:34;;;;;;;0.10;0.10;;;;;;;;;;5089617;28;20055;-60
2021/04/12 14:14:09;;;;;;;0.10;0.10;;;;;;;;;;5084236;28;20105;-60
2021/04/12 14:16:37;;;;;;;0.10;0.10;;;;;;;;;;5084005;28;20044;-60
2021/04/12 14:19:13;;;;;;;0.10;0.10;;;;;;;;;;5085628;28;20028;-60
2021/04/12 14:21:44;;;;;;;0.10;0.10;;;;;;;;;;5085741;28;20039;-60
2021/04/12 14:24:18;;;;;;;0.10;0.10;;;;;;;;;;5090615;28;20044;-60
2021/04/12 14:26:47;;;;;;;0.10;0.10;;;;;;;;;;5090310;28;20020;-60
2021/04/12 14:29:25;;;;;;;5.40;1.27;;;;;;;;;;5089428;28;20349;-60
2021/04/12 14:31:52;;;;;;;0.80;0.63;;;;;;;;;;5088918;28;20055;-60
2021/04/12 14:34:26;;;;;;;0.10;0.10;;;;;;;;;;5084323;28;20020;-60
2021/04/12 14:36:52;;;;;;;0.10;0.10;;;;;;;;;;5090883;28;20114;-59
2021/04/12 14:39:27;;;;;;;0.10;0.10;;;;;;;;;;5091827;28;20078;-60
2021/04/12 14:42:08;;;;;;;0.30;0.28;;;;;;;;;;5088223;28;20131;-60
2021/04/12 14:44:42;;;;;;;0.10;0.10;;;;;;;;;;5088666;28;20198;-60
2021/04/12 14:47:10;;;;;;;0.20;0.20;;;;;;;;;;5088640;28;20059;-59
2021/04/12 14:49:45;;;;;;;0.10;0.10;;;;;;;;;;5088636;28;20052;-60
2021/04/12 14:52:14;;;;;;;0.20;0.20;;;;;;;;;;5085587;28;20563;-60
2021/04/12 14:54:42;;;;;;;0.10;0.10;;;;;;;;;;5092058;28;20555;-60
2021/04/12 14:57:23;;;;;;;0.10;0.10;;;;;;;;;;5088757;28;20032;-60
2021/04/12 14:59:56;;;;;;;0.52;0.47;;;;;;;;;;5089157;28;20476;-60
2021/04/12 15:02:25;;;;;;;0.10;0.10;;;;;;;;;;5087011;28;20028;-59
2021/04/12 15:04:59;;;;;;;0.20;0.20;;;;;;;;;;5086639;28;20040;-56
2021/04/12 15:07:35;;;;;;;0.87;0.60;;;;;;;;;;5082064;28;20070;-59
2021/04/12 15:10:32;;;;;;;0.10;0.10;;;;;;;;;;5082537;28;20693;-62
2021/04/12 15:13:07;;;;;;;0.10;0.10;;;;;;;;;;5068967;28;20045;-60
2021/04/12 15:15:36;;;;;;;0.10;0.10;;;;;;;;;;5082896;28;20539;-60
2021/04/12 15:18:24;;;;;;;0.10;0.10;;;;;;;;;;5078910;28;20052;-65
2021/04/12 15:21:17;;;;;;;0.20;0.20;;;;;;;;;;5081584;28;20036;-61
2021/04/12 15:23:44;;;;;;;0.20;0.20;;;;;;;;;;5023303;28;20041;-60
2021/04/12 15:26:10;;;;;;;0.20;0.20;;;;;;;;;;5019330;28;20187;-58
2021/04/12 15:28:37;;;;;;;0.20;0.20;;;;;;;;;;5020070;28;20044;-60
2021/04/12 15:31:35;;;;;;;0.20;0.20;;;;;;;;;;5017410;28;20022;-60
2021/04/12 15:34:03;;;;;;;0.22;0.22;;;;;;;;;;5015813;28;20085;-61
2021/04/12 15:36:40;;;;;;;0.13;0.13;;;;;;;;;;5023994;28;20029;-61
2021/04/12 15:39:08;;;;;;;1.65;0.30;;;;;;;;;;5015356;28;20033;-61
2021/04/12 15:41:35;;;;;;;0.63;0.32;;;;;;;;;;5020522;28;20064;-59
2021/04/12 15:44:12;;;;;;;0.10;0.10;;;;;;;;;;5021367;28;20180;-60
2021/04/12 15:46:43;;;;;;;0.10;0.10;;;;;;;;;;5007740;28;20037;-60
2021/04/12 15:49:13;;;;;;;0.10;0.10;;;;;;;;;;5018760;28;20044;-56